Station History

Weather Underground - logo

Station Historical Data
Daily Summary for February 4, 2018 Units:  Metric    English   Both
« Previous Day
Next Day »
Daily Weekly Monthly Yearly Custom
  High: Low: Average:
Temperature: 23.4 °C 6.2 °C 14.2 °C
Dew Point: 12.7 °C 5.2 °C 9.7 °C
Humidity: 95 % 46 % 77 %
Wind Speed: 5.6 km/h 0 km/h 0.6 km/h
Wind Gust: 5.6 km/h - -
Wind:- - WNW
Pressure: 1020.9 hPa 1016.8 hPa -
Precipitation: 0 mm    
Historical Graphs
 
 
Tabular Data for February 4, 2018
Time Temperature Dew Point Pressure Wind Wind Speed Wind Gust Humidity Rainfall Rate (Hourly)
00:02 8.4 °C 6.9 °C 1020.2 hPa Calm     90 % 0 mm
00:07 8.3 °C 6.8 °C 1020.2 hPa Calm     90 % 0 mm
00:12 8.2 °C 6.7 °C 1020.2 hPa Calm     90 % 0 mm
00:17 8.1 °C 6.6 °C 1020.2 hPa Calm     90 % 0 mm
00:22 8 °C 6.4 °C 1020.2 hPa Calm     90 % 0 mm
00:27 8.1 °C 6.7 °C 1020.2 hPa Calm     91 % 0 mm
00:32 8.1 °C 6.7 °C 1020.2 hPa Calm     91 % 0 mm
00:37 8 °C 6.6 °C 1019.9 hPa Calm     91 % 0 mm
00:42 7.9 °C 6.3 °C 1019.9 hPa Calm     90 % 0 mm
00:47 7.8 °C 6.2 °C 1019.9 hPa Calm     90 % 0 mm
00:52 7.8 °C 6.4 °C 1019.9 hPa Calm     91 % 0 mm
00:57 7.8 °C 6.4 °C 1019.9 hPa Calm     91 % 0 mm
01:02 7.8 °C 6.4 °C 1019.9 hPa Calm     91 % 0 mm
01:07 7.9 °C 6.7 °C 1019.9 hPa Calm     92 % 0 mm
01:12 8.1 °C 7.1 °C 1019.9 hPa Calm     93 % 0 mm
01:17 8.3 °C 7.2 °C 1019.9 hPa Calm     93 % 0 mm
01:22 8.2 °C 6.8 °C 1019.9 hPa Calm     91 % 0 mm
01:27 7.8 °C 6.4 °C 1019.9 hPa Calm     91 % 0 mm
01:32 7.8 °C 6.4 °C 1019.9 hPa Calm     91 % 0 mm
01:37 7.8 °C 6.4 °C 1019.9 hPa Calm     91 % 0 mm
01:42 7.7 °C 6.5 °C 1019.9 hPa Calm     92 % 0 mm
01:47 7.8 °C 6.6 °C 1019.9 hPa Calm     92 % 0 mm
01:52 8 °C 6.9 °C 1019.9 hPa Calm     93 % 0 mm
01:57 8.2 °C 7.1 °C 1019.9 hPa Calm     93 % 0 mm
02:03 8.2 °C 7.2 °C 1019.9 hPa Calm     93 % 0 mm
02:07 8.2 °C 7 °C 1020.2 hPa Calm     92 % 0 mm
02:12 8.3 °C 7.2 °C 1019.9 hPa Calm     93 % 0 mm
02:18 8.3 °C 7.2 °C 1019.9 hPa Calm     93 % 0 mm
02:23 8.3 °C 7.2 °C 1020.2 hPa Calm     93 % 0 mm
02:28 8.2 °C 6.9 °C 1019.9 hPa Calm     92 % 0 mm
02:33 8.2 °C 7.1 °C 1020.2 hPa Calm     93 % 0 mm
02:38 8.2 °C 7.1 °C 1020.2 hPa Calm     93 % 0 mm
02:43 8.1 °C 6.8 °C 1019.9 hPa Calm     92 % 0 mm
02:48 7.7 °C 6.3 °C 1019.9 hPa Calm     91 % 0 mm
02:53 7.8 °C 6.8 °C 1019.9 hPa Calm     93 % 0 mm
02:58 8.1 °C 7.2 °C 1019.9 hPa Calm     94 % 0 mm
03:03 8.3 °C 7.4 °C 1019.9 hPa Calm     94 % 0 mm
03:08 8.4 °C 7.6 °C 1019.9 hPa WNW 1.9 km/h   94 % 0 mm
03:13 8.7 °C 7.8 °C 1019.9 hPa WNW 1.9 km/h   94 % 0 mm
03:18 9.1 °C 8 °C 1019.5 hPa WNW 1.9 km/h   93 % 0 mm
03:23 9.3 °C 8.1 °C 1019.5 hPa WNW 1.9 km/h   92 % 0 mm
03:28 9.5 °C 8.1 °C 1019.5 hPa WNW 1.6 km/h   91 % 0 mm
03:33 9.7 °C 8.2 °C 1019.5 hPa WNW 1.9 km/h   90 % 0 mm
03:38 9.8 °C 8.3 °C 1019.5 hPa WNW 1.9 km/h   90 % 0 mm
03:43 9.9 °C 8.2 °C 1019.5 hPa Calm     89 % 0 mm
03:48 9.8 °C 7.9 °C 1019.5 hPa WNW 1.9 km/h   88 % 0 mm
03:53 9.6 °C 7.7 °C 1019.5 hPa Calm     88 % 0 mm
03:58 9.3 °C 7.6 °C 1019.5 hPa Calm     89 % 0 mm
04:03 9.4 °C 7.8 °C 1019.5 hPa North 1.6 km/h 1.6 km/h 90 % 0 mm
04:08 9.4 °C 7.9 °C 1019.5 hPa Calm     90 % 0 mm
04:13 9.4 °C 7.9 °C 1019.5 hPa Calm     90 % 0 mm
04:18 9.5 °C 7.9 °C 1019.5 hPa Calm     90 % 0 mm
04:23 9.5 °C 7.9 °C 1019.5 hPa Calm     90 % 0 mm
04:28 9.4 °C 7.9 °C 1019.5 hPa Calm     90 % 0 mm
04:33 9.4 °C 7.8 °C 1019.2 hPa Calm   0.2 km/h 90 % 0 mm
04:38 9.4 °C 7.8 °C 1019.5 hPa NNW 1.9 km/h 1.9 km/h 90 % 0 mm
04:43 9.4 °C 7.8 °C 1019.2 hPa North 1.9 km/h   90 % 0 mm
04:48 9.3 °C 7.8 °C 1019.5 hPa North 1.9 km/h   90 % 0 mm
04:53 9.1 °C 7.3 °C 1019.5 hPa Calm     89 % 0 mm
04:58 8.9 °C 7.4 °C 1019.5 hPa Calm     90 % 0 mm
05:03 8.5 °C 6.8 °C 1019.5 hPa Calm     89 % 0 mm
05:08 8.1 °C 6.3 °C 1019.5 hPa Calm     89 % 0 mm
05:13 7.7 °C 6.2 °C 1019.5 hPa Calm     90 % 0 mm
05:18 7.5 °C 5.9 °C 1019.5 hPa Calm     90 % 0 mm
05:23 7.4 °C 6 °C 1019.5 hPa Calm     91 % 0 mm
05:28 7.3 °C 5.9 °C 1019.5 hPa Calm     91 % 0 mm
05:33 7.1 °C 5.7 °C 1019.5 hPa Calm     91 % 0 mm
05:38 6.9 °C 5.7 °C 1019.5 hPa Calm     92 % 0 mm
05:43 6.9 °C 5.7 °C 1019.5 hPa Calm     92 % 0 mm
05:48 6.9 °C 5.9 °C 1019.5 hPa Calm     93 % 0 mm
05:53 6.9 °C 5.8 °C 1019.5 hPa Calm     93 % 0 mm
05:58 6.8 °C 5.8 °C 1019.5 hPa Calm     93 % 0 mm
06:03 6.8 °C 5.7 °C 1019.5 hPa Calm     93 % 0 mm
06:08 6.7 °C 5.7 °C 1019.9 hPa Calm     93 % 0 mm
06:13 6.7 °C 5.6 °C 1019.9 hPa Calm     93 % 0 mm
06:18 6.5 °C 5.4 °C 1020.2 hPa Calm     93 % 0 mm
06:23 6.3 °C 5.2 °C 1020.2 hPa Calm     93 % 0 mm
06:29 6.2 °C 5.2 °C 1020.2 hPa Calm     93 % 0 mm
06:34 6.2 °C 5.2 °C 1020.2 hPa Calm     93 % 0 mm
06:39 6.4 °C 5.6 °C 1020.2 hPa Calm     94 % 0 mm
06:44 6.6 °C 5.7 °C 1020.2 hPa Calm     94 % 0 mm
06:49 6.6 °C 5.7 °C 1020.5 hPa Calm     94 % 0 mm
06:54 6.6 °C 5.7 °C 1020.5 hPa Calm     94 % 0 mm
06:59 6.6 °C 5.7 °C 1020.5 hPa Calm     94 % 0 mm
07:04 6.6 °C 5.7 °C 1020.5 hPa Calm     94 % 0 mm
07:09 6.6 °C 5.7 °C 1020.5 hPa Calm     94 % 0 mm
07:14 6.7 °C 5.8 °C 1020.5 hPa Calm     94 % 0 mm
07:19 6.8 °C 6.1 °C 1020.5 hPa Calm     95 % 0 mm
07:24 6.9 °C 6.1 °C 1020.9 hPa Calm     94 % 0 mm
07:29 7 °C 6.1 °C 1020.5 hPa Calm     94 % 0 mm
07:34 6.9 °C 6.1 °C 1020.9 hPa Calm     94 % 0 mm
07:39 7.2 °C 6.3 °C 1020.9 hPa Calm     94 % 0 mm
07:44 7.4 °C 6.5 °C 1020.5 hPa Calm     94 % 0 mm
07:49 7.7 °C 6.8 °C 1020.5 hPa Calm     94 % 0 mm
07:54 8.2 °C 7.4 °C 1020.5 hPa Calm     95 % 0 mm
07:59 8.9 °C 8.2 °C 1020.5 hPa North 1.6 km/h   95 % 0 mm
08:04 9.6 °C 8.5 °C 1020.5 hPa Calm     93 % 0 mm
08:09 9.9 °C 8.6 °C 1020.9 hPa Calm     91 % 0 mm
08:14 10.3 °C 8.8 °C 1020.9 hPa Calm     90 % 0 mm
08:19 10.6 °C 8.9 °C 1020.5 hPa Calm     89 % 0 mm
08:24 11 °C 9.3 °C 1020.5 hPa Calm     89 % 0 mm
08:29 11.6 °C 9.6 °C 1020.9 hPa Calm     88 % 0 mm
08:34 11.8 °C 9.5 °C 1020.9 hPa Calm     86 % 0 mm
08:39 12.1 °C 10 °C 1020.5 hPa Calm     87 % 0 mm
08:44 12.7 °C 10.4 °C 1020.5 hPa Calm     86 % 0 mm
08:49 13.4 °C 10.9 °C 1020.5 hPa Calm     85 % 0 mm
08:54 13.7 °C 10.7 °C 1020.5 hPa Calm     82 % 0 mm
08:59 13.8 °C 10.8 °C 1020.5 hPa Calm     82 % 0 mm
09:04 14.1 °C 11.1 °C 1020.9 hPa Calm   0.2 km/h 82 % 0 mm
09:09 14.2 °C 10.9 °C 1020.5 hPa Calm     81 % 0 mm
09:14 14.4 °C 11 °C 1020.5 hPa Calm     80 % 0 mm
09:19 14.7 °C 11.3 °C 1020.5 hPa Calm     80 % 0 mm
09:24 15.3 °C 11.3 °C 1020.5 hPa NW 1.9 km/h   77 % 0 mm
09:29 15.6 °C 11.4 °C 1020.5 hPa Calm     76 % 0 mm
09:34 16.3 °C 11.2 °C 1020.5 hPa Calm     72 % 0 mm
09:39 16.6 °C 11.3 °C 1020.5 hPa WNW 1.9 km/h   71 % 0 mm
09:44 16.6 °C 10.8 °C 1020.5 hPa Calm     69 % 0 mm
09:49 16.8 °C 11.1 °C 1020.9 hPa Calm     69 % 0 mm
09:54 16.9 °C 10.7 °C 1020.9 hPa Calm     67 % 0 mm
09:59 17.1 °C 10.9 °C 1020.9 hPa Calm     67 % 0 mm
10:04 17.4 °C 11.2 °C 1020.9 hPa Calm     67 % 0 mm
10:09 17.7 °C 11 °C 1020.9 hPa WNW 3.7 km/h 3.7 km/h 65 % 0 mm
10:14 17.8 °C 11.4 °C 1020.9 hPa Calm     66 % 0 mm
10:19 18.1 °C 11.2 °C 1020.9 hPa Calm     64 % 0 mm
10:24 18.3 °C 10.9 °C 1020.9 hPa Calm     62 % 0 mm
10:29 18.4 °C 10.8 °C 1020.9 hPa Calm     61 % 0 mm
10:34 18.7 °C 11 °C 1020.9 hPa Calm     61 % 0 mm
10:39 18.8 °C 11.1 °C 1020.9 hPa Calm     61 % 0 mm
10:44 19.1 °C 11.3 °C 1020.9 hPa North 1.9 km/h 1.9 km/h 61 % 0 mm
10:49 19.3 °C 11.1 °C 1020.5 hPa WSW 1.9 km/h 1.9 km/h 59 % 0 mm
10:54 19.6 °C 11.8 °C 1020.5 hPa Calm     61 % 0 mm
10:59 19.7 °C 10.9 °C 1020.5 hPa West 5.6 km/h 5.6 km/h 57 % 0 mm
11:04 19.8 °C 11.3 °C 1020.5 hPa North 3.7 km/h 3.7 km/h 58 % 0 mm
11:09 19.9 °C 11.2 °C 1020.5 hPa SW 3.7 km/h 3.7 km/h 57 % 0 mm
11:14 20 °C 11.5 °C 1020.5 hPa WSW 3.2 km/h 3.2 km/h 58 % 0 mm
11:19 20.2 °C 11.6 °C 1020.5 hPa NW 5.6 km/h 5.6 km/h 58 % 0 mm
11:24 20.4 °C 11.8 °C 1020.2 hPa NW 3.7 km/h 3.7 km/h 58 % 0 mm
11:29 20.5 °C 11.7 °C 1020.2 hPa NW 1.9 km/h 1.9 km/h 57 % 0 mm
11:34 20.7 °C 12.1 °C 1020.2 hPa WNW 1.6 km/h 1.6 km/h 58 % 0 mm
11:39 20.9 °C 11.8 °C 1020.2 hPa NW 1.9 km/h 1.9 km/h 56 % 0 mm
11:44 21.1 °C 12.2 °C 1019.9 hPa WNW 3.2 km/h 3.2 km/h 57 % 0 mm
11:49 21.1 °C 12 °C 1019.9 hPa WNW 1.9 km/h   56 % 0 mm
11:54 21.3 °C 12.4 °C 1019.5 hPa North 3.7 km/h 3.7 km/h 57 % 0 mm
11:59 21.3 °C 11.9 °C 1019.5 hPa NW 3.7 km/h 3.7 km/h 55 % 0 mm
12:04 21.3 °C 12.4 °C 1019.5 hPa NW 5.6 km/h 5.6 km/h 57 % 0 mm
12:09 21.5 °C 12.3 °C 1019.2 hPa NW 3.7 km/h 3.7 km/h 56 % 0 mm
12:14 21.6 °C 12.2 °C 1019.2 hPa Calm     55 % 0 mm
12:19 21.7 °C 12.3 °C 1019.2 hPa WSW 5.6 km/h 5.6 km/h 55 % 0 mm
12:24 21.7 °C 12.2 °C 1018.8 hPa NW 3.7 km/h 3.7 km/h 55 % 0 mm
12:30 21.8 °C 12.4 °C 1018.8 hPa NW 1.9 km/h 1.9 km/h 55 % 0 mm
12:35 21.9 °C 12.2 °C 1018.8 hPa NW 3.7 km/h 3.7 km/h 54 % 0 mm
12:40 22.2 °C 12.1 °C 1018.5 hPa NW 4.8 km/h 4.8 km/h 53 % 0 mm
12:45 22.2 °C 11.8 °C 1018.5 hPa North 3.7 km/h   52 % 0 mm
12:50 22.4 °C 12.6 °C 1018.5 hPa WNW 3.2 km/h 3.2 km/h 54 % 0 mm
12:55 22.5 °C 12.7 °C 1018.2 hPa WNW 1.9 km/h 1.9 km/h 54 % 0 mm
13:00 22.4 °C 12.1 °C 1018.2 hPa West 3.7 km/h 3.7 km/h 52 % 0 mm
13:05 22.4 °C 12.7 °C 1017.8 hPa NW 5.6 km/h 5.6 km/h 54 % 0 mm
13:10 22.4 °C 12.4 °C 1017.8 hPa WNW 1.9 km/h 1.9 km/h 53 % 0 mm
13:15 22.6 °C 12.2 °C 1017.8 hPa Calm     52 % 0 mm
13:20 22.6 °C 11.9 °C 1017.8 hPa Calm     51 % 0 mm
13:25 22.7 °C 12.3 °C 1017.8 hPa NW 3.7 km/h 3.7 km/h 52 % 0 mm
13:30 22.7 °C 12.1 °C 1017.8 hPa NW 1.9 km/h   51 % 0 mm
13:35 22.7 °C 12.1 °C 1017.5 hPa NW 1.6 km/h 1.6 km/h 51 % 0 mm
13:40 22.7 °C 11.7 °C 1017.5 hPa WNW 1.9 km/h 1.9 km/h 50 % 0 mm
13:45 22.7 °C 11.7 °C 1017.5 hPa Calm     50 % 0 mm
13:50 22.8 °C 11.8 °C 1017.5 hPa Calm     50 % 0 mm
13:55 22.8 °C 12.7 °C 1017.5 hPa NW 3.7 km/h 3.7 km/h 53 % 0 mm
14:00 22.8 °C 12.1 °C 1017.2 hPa Calm     51 % 0 mm
14:05 22.8 °C 12.2 °C 1017.2 hPa Calm     51 % 0 mm
14:10 22.9 °C 11.9 °C 1017.2 hPa WNW 1.9 km/h 1.9 km/h 50 % 0 mm
14:15 22.9 °C 11.9 °C 1017.2 hPa WNW 1.9 km/h 1.9 km/h 50 % 0 mm
14:20 23.1 °C 12.1 °C 1017.2 hPa WNW 1.9 km/h   50 % 0 mm
14:25 23.2 °C 11.6 °C 1017.2 hPa WNW 1.6 km/h   48 % 0 mm
14:30 23.3 °C 11.7 °C 1017.2 hPa Calm     48 % 0 mm
14:35 23.3 °C 11.7 °C 1017.2 hPa NW 1.9 km/h 1.9 km/h 48 % 0 mm
14:40 23.2 °C 11.6 °C 1017.2 hPa NW 1.9 km/h   48 % 0 mm
14:45 23.3 °C 12 °C 1017.2 hPa West 1.6 km/h   49 % 0 mm
14:50 23.4 °C 11.2 °C 1017.2 hPa Calm     46 % 0 mm
14:55 23.4 °C 11.8 °C 1016.8 hPa West 1.9 km/h   48 % 0 mm
15:00 23.3 °C 11.4 °C 1016.8 hPa NW 1.9 km/h 1.9 km/h 47 % 0 mm
15:05 23.3 °C 11.4 °C 1016.8 hPa NW 3.7 km/h 3.7 km/h 47 % 0 mm
15:10 23.3 °C 11.4 °C 1016.8 hPa WNW 3.2 km/h 3.2 km/h 47 % 0 mm
15:15 23.2 °C 11.6 °C 1016.8 hPa WNW 1.9 km/h 1.9 km/h 48 % 0 mm
15:20 23.2 °C 11.2 °C 1016.8 hPa WNW 1.9 km/h 1.9 km/h 47 % 0 mm
15:25 23.1 °C 11.4 °C 1016.8 hPa NW 1.9 km/h 1.9 km/h 48 % 0 mm
15:30 23.1 °C 11.1 °C 1016.8 hPa NW 1.9 km/h 1.9 km/h 47 % 0 mm
15:35 23.1 °C 11.5 °C 1016.8 hPa WNW 3.7 km/h   48 % 0 mm
15:40 23.2 °C 11.6 °C 1016.8 hPa NW 5.6 km/h 5.6 km/h 48 % 0 mm
15:45 23.2 °C 11.6 °C 1016.8 hPa NW 3.7 km/h 3.7 km/h 48 % 0 mm
15:50 23.1 °C 11.1 °C 1016.8 hPa NW 1.9 km/h 1.9 km/h 47 % 0 mm
15:55 23 °C 11.4 °C 1016.8 hPa WNW 3.7 km/h 3.7 km/h 48 % 0 mm
16:00 22.9 °C 11.7 °C 1016.8 hPa NW 1.9 km/h 2.1 km/h 49 % 0 mm
16:05 22.7 °C 11.8 °C 1016.8 hPa NW 1.9 km/h 1.9 km/h 50 % 0 mm
16:10 22.5 °C 12.2 °C 1016.8 hPa WNW 1.9 km/h 1.9 km/h 52 % 0 mm
16:15 22.3 °C 12.5 °C 1016.8 hPa NW 1.9 km/h 1.9 km/h 54 % 0 mm
16:20 22 °C 12.6 °C 1016.8 hPa NW 1.9 km/h 1.9 km/h 55 % 0 mm
16:25 21.8 °C 12.3 °C 1016.8 hPa WNW 1.9 km/h 1.9 km/h 55 % 0 mm
16:30 21.7 °C 12.2 °C 1016.8 hPa Calm     55 % 0 mm
16:35 21.5 °C 12.3 °C 1016.8 hPa Calm     56 % 0 mm
16:40 21.3 °C 12.2 °C 1016.8 hPa Calm     56 % 0 mm
16:45 21.2 °C 12.1 °C 1016.8 hPa Calm     56 % 0 mm
16:50 21.1 °C 11.9 °C 1016.8 hPa Calm     56 % 0 mm
16:55 20.9 °C 11.8 °C 1016.8 hPa Calm     56 % 0 mm
17:00 20.8 °C 12 °C 1016.8 hPa Calm     57 % 0 mm
17:05 20.7 °C 11.9 °C 1017.2 hPa Calm     57 % 0 mm
17:10 20.5 °C 11.7 °C 1017.2 hPa Calm     57 % 0 mm
17:15 20.2 °C 11.9 °C 1016.8 hPa Calm     59 % 0 mm
17:20 19.9 °C 12.2 °C 1016.8 hPa Calm     61 % 0 mm
17:25 19.5 °C 12.3 °C 1017.2 hPa Calm     63 % 0 mm
17:30 19.1 °C 12.4 °C 1017.2 hPa Calm     65 % 0 mm
17:35 18.7 °C 12.2 °C 1017.2 hPa Calm     66 % 0 mm
17:41 18.3 °C 12.1 °C 1017.2 hPa Calm     67 % 0 mm
17:46 18.2 °C 12.2 °C 1017.2 hPa Calm     68 % 0 mm
17:51 18.1 °C 12.3 °C 1017.2 hPa Calm     69 % 0 mm
17:56 17.9 °C 12.2 °C 1017.2 hPa Calm     69 % 0 mm
18:01 17.7 °C 12.1 °C 1017.2 hPa Calm     70 % 0 mm
18:06 17.3 °C 12 °C 1017.2 hPa Calm     71 % 0 mm
18:11 17 °C 12.3 °C 1017.2 hPa Calm     74 % 0 mm
18:16 16.8 °C 12.2 °C 1017.5 hPa Calm     74 % 0 mm
18:21 16.8 °C 12.3 °C 1017.5 hPa Calm     75 % 0 mm
18:26 16.7 °C 12.2 °C 1017.5 hPa Calm     75 % 0 mm
18:31 16.4 °C 12.2 °C 1017.5 hPa Calm     76 % 0 mm
18:36 16.3 °C 12.1 °C 1017.5 hPa Calm     76 % 0 mm
18:41 16.2 °C 12.1 °C 1017.5 hPa Calm     77 % 0 mm
18:46 15.9 °C 12.1 °C 1017.5 hPa Calm     78 % 0 mm
18:51 15.6 °C 12 °C 1017.5 hPa Calm     79 % 0 mm
18:56 15.5 °C 11.9 °C 1017.8 hPa Calm     79 % 0 mm
19:01 15.5 °C 11.9 °C 1017.8 hPa Calm     79 % 0 mm
19:06 15.5 °C 11.9 °C 1017.8 hPa Calm     79 % 0 mm
19:11 15.3 °C 11.7 °C 1017.8 hPa Calm     79 % 0 mm
19:16 15.1 °C 11.6 °C 1017.8 hPa Calm     80 % 0 mm
19:21 14.8 °C 11.6 °C 1017.8 hPa Calm     81 % 0 mm
19:26 14.8 °C 11.2 °C 1017.8 hPa Calm     79 % 0 mm
19:31 14.6 °C 11.6 °C 1017.8 hPa Calm     82 % 0 mm
19:36 14.6 °C 11.2 °C 1017.8 hPa Calm     80 % 0 mm
19:41 14.4 °C 11.2 °C 1017.8 hPa Calm     81 % 0 mm
19:46 14.3 °C 11.5 °C 1017.8 hPa Calm     83 % 0 mm
19:51 14.6 °C 11.5 °C 1017.8 hPa Calm     82 % 0 mm
19:56 14.6 °C 11.4 °C 1018.2 hPa Calm     81 % 0 mm
20:01 14.6 °C 11.6 °C 1018.2 hPa Calm     82 % 0 mm
20:06 14.6 °C 11.4 °C 1018.2 hPa Calm     81 % 0 mm
20:11 14.4 °C 11.2 °C 1018.2 hPa Calm     81 % 0 mm
20:16 14.2 °C 11.2 °C 1018.2 hPa Calm     82 % 0 mm
20:21 14.3 °C 11.2 °C 1018.2 hPa Calm     82 % 0 mm
20:26 14.1 °C 11.1 °C 1018.2 hPa Calm     82 % 0 mm
20:31 13.9 °C 11.1 °C 1018.2 hPa Calm     83 % 0 mm
20:36 14 °C 11.2 °C 1018.2 hPa Calm     83 % 0 mm
20:41 13.9 °C 11.1 °C 1018.2 hPa Calm     83 % 0 mm
20:46 13.7 °C 10.7 °C 1018.2 hPa Calm     82 % 0 mm
20:51 13.4 °C 10.7 °C 1018.5 hPa Calm     84 % 0 mm
20:56 13.2 °C 10.5 °C 1018.5 hPa Calm     84 % 0 mm
21:01 13.1 °C 10.7 °C 1018.5 hPa Calm     85 % 0 mm
21:06 12.9 °C 10.5 °C 1018.5 hPa Calm     85 % 0 mm
21:11 12.7 °C 10.3 °C 1018.5 hPa Calm     85 % 0 mm
21:16 12.6 °C 10.4 °C 1018.5 hPa Calm     87 % 0 mm
21:22 12.6 °C 10.4 °C 1018.5 hPa Calm     87 % 0 mm
21:27 12.4 °C 10.3 °C 1018.5 hPa Calm     87 % 0 mm
21:32 12.4 °C 10.3 °C 1018.5 hPa Calm     87 % 0 mm
21:37 12.3 °C 10 °C 1018.5 hPa Calm     86 % 0 mm
21:42 12.2 °C 10.1 °C 1018.5 hPa Calm     87 % 0 mm
21:47 12.2 °C 10.1 °C 1018.5 hPa Calm     87 % 0 mm
21:52 12.2 °C 10.1 °C 1018.5 hPa Calm     87 % 0 mm
21:57 12.2 °C 10.1 °C 1018.5 hPa Calm     87 % 0 mm
22:02 12.3 °C 10 °C 1018.5 hPa Calm     86 % 0 mm
22:07 12.2 °C 9.9 °C 1018.5 hPa Calm     86 % 0 mm
22:12 11.9 °C 9.7 °C 1018.5 hPa Calm     86 % 0 mm
22:17 11.8 °C 9.5 °C 1018.5 hPa Calm     86 % 0 mm
22:22 11.4 °C 9.2 °C 1018.5 hPa Calm     86 % 0 mm
22:27 11.2 °C 9.1 °C 1018.5 hPa Calm     87 % 0 mm
22:32 11.1 °C 9.2 °C 1018.5 hPa Calm     88 % 0 mm
22:37 11 °C 9.1 °C 1018.5 hPa Calm     88 % 0 mm
22:42 10.9 °C 9.2 °C 1018.5 hPa Calm     89 % 0 mm
22:47 10.7 °C 8.8 °C 1018.5 hPa Calm     88 % 0 mm
22:52 10.6 °C 8.7 °C 1018.5 hPa Calm     88 % 0 mm
22:57 10.4 °C 8.7 °C 1018.5 hPa Calm     89 % 0 mm
23:02 10.4 °C 8.7 °C 1018.5 hPa Calm     89 % 0 mm
23:07 10.2 °C 8.5 °C 1018.5 hPa Calm     89 % 0 mm
23:12 9.9 °C 8.2 °C 1018.5 hPa Calm     89 % 0 mm
23:17 10.1 °C 8.7 °C 1018.5 hPa Calm     91 % 0 mm
23:22 10.2 °C 8.6 °C 1018.5 hPa Calm     90 % 0 mm
23:27 10.4 °C 9.1 °C 1018.5 hPa NNW 1.9 km/h 1.9 km/h 91 % 0 mm
23:32 10.7 °C 9.2 °C 1018.5 hPa Calm     90 % 0 mm
23:37 10.9 °C 9.2 °C 1018.5 hPa Calm     89 % 0 mm
23:42 10.9 °C 9.2 °C 1018.5 hPa Calm     89 % 0 mm
23:47 10.8 °C 8.9 °C 1018.5 hPa Calm     88 % 0 mm
23:52 10.7 °C 8.8 °C 1018.2 hPa Calm     88 % 0 mm
23:57 10.6 °C 8.8 °C 1018.2 hPa Calm     89 % 0 mm
Park Place, Exeter, Tulare County, California, USA
Compliments of Weather Underground - 2.75 mb